Time;durP1;ratioP1;P1;durP2;ratioP2;P2;SDS_P1;SDS_P2;PMS_P1;PMS_P2;Temp;Humidity;BMP_temperature;BMP_pressure;BME280_temperature;BME280_humidity;BME280_pressure;Samples;Min_cycle;Max_cycle;Signal;HPM_P1;HPM_P2
2024/02/14 00:02:12;;;;;;;7.53;3.53;;;;;;;7.90;56.00;99229.59;6975984;28;20292;-80
2024/02/14 00:05:33;;;;;;;4.77;3.53;;;;;;;8.00;55.42;99225.66;6956621;28;20232;-80
2024/02/14 00:08:55;;;;;;;5.17;3.93;;;;;;;7.96;55.50;99216.25;6966571;28;20363;-80
2024/02/14 00:12:16;;;;;;;4.90;3.67;;;;;;;7.87;55.42;99232.59;6945136;28;20734;-80
2024/02/14 00:15:38;;;;;;;3.90;3.60;;;;;;;7.72;55.86;99220.97;6953635;28;20672;-80
2024/02/14 00:19:02;;;;;;;4.50;3.97;;;;;;;7.67;56.50;99226.84;6972660;28;20227;-80
2024/02/14 00:22:24;;;;;;;4.77;4.07;;;;;;;7.39;56.39;99217.63;6945449;28;20214;-80
2024/02/14 00:25:45;;;;;;;4.97;4.30;;;;;;;7.53;56.86;99224.09;6962915;28;20735;-80
2024/02/14 00:29:07;;;;;;;8.00;4.33;;;;;;;7.56;57.03;99221.91;6944620;28;20327;-80
2024/02/14 00:32:29;;;;;;;7.87;4.70;;;;;;;7.74;56.68;99213.56;6972259;28;20203;-80
2024/02/14 00:35:52;;;;;;;6.20;4.80;;;;;;;7.80;56.48;99223.59;6969976;28;20681;-80
2024/02/14 00:39:13;;;;;;;7.60;4.93;;;;;;;7.48;57.25;99227.28;6954871;28;20828;-80
2024/02/14 00:42:35;;;;;;;5.70;4.70;;;;;;;7.64;57.06;99221.00;6944539;28;20336;-80
2024/02/14 00:45:57;;;;;;;5.80;4.50;;;;;;;7.62;56.93;99226.56;6943970;28;20343;-80
2024/02/14 00:49:18;;;;;;;10.27;4.60;;;;;;;7.68;56.73;99225.00;6960984;28;20226;-80
2024/02/14 00:52:41;;;;;;;7.20;5.20;;;;;;;7.80;56.93;99213.72;6952945;28;20721;-80
2024/02/14 00:56:03;;;;;;;4.73;4.20;;;;;;;7.86;56.41;99222.88;6972371;28;20235;-80
2024/02/14 00:59:25;;;;;;;8.87;5.13;;;;;;;8.08;56.49;99225.56;6953846;28;20211;-80
2024/02/14 01:02:46;;;;;;;5.33;4.83;;;;;;;7.92;56.77;99231.09;6945333;28;20207;-81
2024/02/14 01:06:08;;;;;;;6.63;4.23;;;;;;;7.90;56.94;99230.41;6952076;28;20671;-80
2024/02/14 01:09:31;;;;;;;6.17;4.27;;;;;;;7.89;56.44;99227.91;6969882;28;20311;-80
2024/02/14 01:12:53;;;;;;;8.07;4.33;;;;;;;8.05;56.14;99235.84;6971257;28;20225;-80
2024/02/14 01:16:15;;;;;;;6.63;4.70;;;;;;;8.11;56.48;99235.97;6972454;28;20224;-80
2024/02/14 01:19:36;;;;;;;7.43;5.00;;;;;;;7.75;57.16;99247.44;6967943;28;20200;-80
2024/02/14 01:22:59;;;;;;;8.13;4.73;;;;;;;7.64;57.56;99250.53;6945210;28;20323;-80
2024/02/14 01:26:21;;;;;;;4.60;4.20;;;;;;;7.90;56.59;99154.41;6959168;28;20218;-81
2024/02/14 01:29:43;;;;;;;4.80;4.30;;;;;;;8.12;56.52;99247.53;6963582;28;20314;-81
2024/02/14 01:33:05;;;;;;;9.40;5.60;;;;;;;8.01;57.43;99231.88;6970389;28;20708;-81
2024/02/14 01:36:27;;;;;;;5.83;5.10;;;;;;;7.94;57.08;99231.72;6969889;28;20347;-80
2024/02/14 01:39:48;;;;;;;7.83;5.23;;;;;;;7.58;58.69;99235.97;6942381;28;20717;-81
2024/02/14 01:43:14;;;;;;;7.27;5.67;;;;;;;8.21;58.12;99235.75;6941312;28;20346;-80
2024/02/14 01:46:35;;;;;;;5.63;4.37;;;;;;;8.76;56.54;99226.38;6959890;28;20222;-81
2024/02/14 01:49:57;;;;;;;7.20;4.93;;;;;;;8.44;57.31;99217.78;6956386;28;20926;-81
2024/02/14 01:53:18;;;;;;;5.10;4.70;;;;;;;8.18;58.05;99211.91;6946472;28;20780;-81
2024/02/14 01:56:40;;;;;;;5.47;4.90;;;;;;;8.70;57.36;99216.34;6948942;28;20223;-81
2024/02/14 02:00:08;;;;;;;6.97;4.83;;;;;;;7.90;57.64;99200.06;6959428;28;20301;-81
2024/02/14 02:03:29;;;;;;;6.50;4.87;;;;;;;8.32;58.78;99211.97;6955271;28;20225;-78
2024/02/14 02:06:51;;;;;;;5.90;4.53;;;;;;;8.07;59.03;99215.03;6968753;28;20311;-78
2024/02/14 02:10:12;;;;;;;6.93;4.50;;;;;;;8.20;59.26;99218.78;6944839;28;20252;-78
2024/02/14 02:13:34;;;;;;;7.43;5.27;;;;;;;8.26;59.68;99222.63;6956105;28;20267;-78
2024/02/14 02:16:57;;;;;;;9.77;5.43;;;;;;;8.45;59.09;99222.13;6944897;28;20686;-77
2024/02/14 02:20:18;;;;;;;7.13;5.63;;;;;;;8.53;59.18;99217.50;6948938;28;20733;-78
2024/02/14 02:23:43;;;;;;;6.20;4.80;;;;;;;8.71;58.69;99207.25;6957534;28;20335;-78
2024/02/14 02:27:05;;;;;;;5.47;4.73;;;;;;;9.07;58.33;99200.13;6947577;28;20251;-77
2024/02/14 02:30:27;;;;;;;8.20;4.80;;;;;;;9.11;58.40;99199.56;6944342;28;20473;-79
2024/02/14 02:33:49;;;;;;;7.07;4.23;;;;;;;9.17;57.85;99198.81;6944480;28;20212;-78
2024/02/14 02:37:10;;;;;;;5.43;4.93;;;;;;;8.84;58.53;99195.88;6948622;28;20308;-77
2024/02/14 02:40:33;;;;;;;7.80;5.20;;;;;;;8.63;59.69;99196.59;6971563;28;20308;-77
2024/02/14 02:43:55;;;;;;;8.40;4.60;;;;;;;8.55;60.17;99191.28;6976079;28;20810;-80
2024/02/14 02:47:17;;;;;;;8.47;4.53;;;;;;;9.39;58.01;99189.00;6982646;28;20222;-77
2024/02/14 02:50:38;;;;;;;8.00;5.07;;;;;;;9.42;57.36;99185.91;6964255;28;20213;-78
2024/02/14 02:54:00;;;;;;;7.13;5.30;;;;;;;9.12;58.56;99192.34;6976230;28;20242;-78
2024/02/14 02:57:23;;;;;;;7.10;5.40;;;;;;;8.93;59.05;99191.03;6960826;28;20261;-80
2024/02/14 03:00:44;;;;;;;7.07;5.60;;;;;;;8.55;60.38;99191.28;6958569;28;20301;-78
2024/02/14 03:04:06;;;;;;;6.70;4.77;;;;;;;9.16;59.84;99178.31;6943879;28;20239;-78
2024/02/14 03:07:28;;;;;;;6.37;5.10;;;;;;;9.69;57.82;99169.03;6943109;28;20226;-77
2024/02/14 03:10:50;;;;;;;5.17;4.70;;;;;;;9.56;58.15;99161.66;6957334;28;20207;-78
2024/02/14 03:14:12;;;;;;;6.97;5.27;;;;;;;9.73;58.17;99163.09;6943718;28;20741;-79
2024/02/14 03:17:34;;;;;;;8.20;5.93;;;;;;;9.70;57.40;99149.16;6952939;28;20262;-78
2024/02/14 03:20:55;;;;;;;7.27;5.40;;;;;;;9.69;58.24;99148.31;6956747;28;20294;-78
2024/02/14 03:24:17;;;;;;;8.17;4.97;;;;;;;9.78;57.71;99146.34;6943292;28;20215;-77
2024/02/14 03:27:39;;;;;;;7.83;5.23;;;;;;;9.51;58.47;99155.19;6942590;28;20368;-77
2024/02/14 03:31:02;;;;;;;9.50;5.43;;;;;;;9.41;58.71;99165.41;6946218;28;20198;-78
2024/02/14 03:34:25;;;;;;;7.47;4.83;;;;;;;9.09;59.39;99172.03;6970416;28;20422;-78
2024/02/14 03:37:48;;;;;;;5.70;4.57;;;;;;;9.02;59.38;99176.50;6944406;28;20223;-78
2024/02/14 03:41:10;;;;;;;5.37;3.93;;;;;;;9.61;57.53;99183.44;6957263;28;20205;-78
2024/02/14 03:44:31;;;;;;;7.07;3.67;;;;;;;9.94;55.58;99192.72;6970449;28;20732;-77
2024/02/14 03:47:54;;;;;;;5.83;4.13;;;;;;;10.20;53.90;99197.56;6969489;28;20226;-80
2024/02/14 03:51:17;;;;;;;6.33;3.87;;;;;;;10.45;53.42;99201.53;6969811;28;20289;-78
2024/02/14 03:54:38;;;;;;;6.27;4.00;;;;;;;10.34;53.05;99167.84;6960979;28;20293;-77
2024/02/14 03:58:00;;;;;;;5.53;3.90;;;;;;;10.58;52.41;99212.41;6942447;28;20318;-78
2024/02/14 04:01:21;;;;;;;7.13;4.70;;;;;;;10.40;53.14;99209.38;6957835;28;20237;-78
2024/02/14 04:04:46;;;;;;;7.90;4.60;;;;;;;10.54;53.40;99213.81;6962533;28;20223;-78
2024/02/14 04:08:09;;;;;;;8.03;6.10;;;;;;;10.38;54.33;99206.00;6971614;28;20237;-78
2024/02/14 04:11:31;;;;;;;5.57;4.93;;;;;;;10.09;55.56;99206.19;6975802;28;20564;-79
2024/02/14 04:14:52;;;;;;;8.73;5.70;;;;;;;10.12;55.20;99206.63;6941806;28;20297;-78
2024/02/14 04:18:14;;;;;;;7.83;5.40;;;;;;;10.36;54.41;99213.47;6958545;28;20406;-79
2024/02/14 04:21:37;;;;;;;7.20;5.43;;;;;;;10.31;54.83;99205.13;6958231;28;20206;-78
2024/02/14 04:24:59;;;;;;;7.90;4.77;;;;;;;10.09;55.20;99204.28;6946698;28;20222;-78
2024/02/14 04:28:21;;;;;;;6.70;4.83;;;;;;;10.01;55.86;99195.47;6950763;28;20261;-79
2024/02/14 04:31:43;;;;;;;7.43;5.00;;;;;;;10.12;55.31;99200.38;6949655;28;20197;-79
2024/02/14 04:35:05;;;;;;;5.67;5.00;;;;;;;10.20;55.01;99209.19;6952593;28;20207;-77
2024/02/14 04:38:29;;;;;;;6.93;4.70;;;;;;;9.80;54.85;99185.53;6940869;28;20351;-77
2024/02/14 04:41:50;;;;;;;4.70;4.23;;;;;;;10.31;54.28;99219.44;6942963;28;20338;-78
2024/02/14 04:45:13;;;;;;;8.70;4.30;;;;;;;10.64;53.89;99206.25;6941577;28;20660;-79
2024/02/14 04:48:34;;;;;;;5.47;4.20;;;;;;;10.72;52.66;99203.38;6940433;28;20227;-78
2024/02/14 04:51:56;;;;;;;9.07;4.73;;;;;;;10.51;52.98;99204.25;6960102;28;20638;-78
2024/02/14 04:55:19;;;;;;;6.87;4.63;;;;;;;10.34;53.46;99226.31;6966894;28;20203;-78
2024/02/14 04:58:40;;;;;;;6.37;4.80;;;;;;;10.14;54.74;99223.41;6967712;28;20234;-78
2024/02/14 05:02:02;;;;;;;6.40;4.50;;;;;;;10.53;54.13;99225.66;6963855;28;20293;-78
2024/02/14 05:05:23;;;;;;;6.07;4.10;;;;;;;10.56;54.19;99226.09;6968574;28;20300;-78
2024/02/14 05:08:45;;;;;;;6.10;5.40;;;;;;;10.30;55.55;99227.72;6951928;28;20321;-78
2024/02/14 05:12:10;;;;;;;5.60;4.13;;;;;;;10.49;55.32;99221.66;6941052;28;20297;-77
2024/02/14 05:15:31;;;;;;;5.87;4.93;;;;;;;10.60;54.56;99237.31;6940927;28;20211;-77
2024/02/14 05:18:53;;;;;;;5.87;4.90;;;;;;;10.34;55.04;99237.91;6958523;28;20218;-77
2024/02/14 05:22:14;;;;;;;6.33;5.00;;;;;;;10.65;53.32;99234.88;6964288;28;20282;-78
2024/02/14 05:25:36;;;;;;;5.80;5.23;;;;;;;10.33;54.10;99227.34;6970747;28;20255;-77
2024/02/14 05:28:59;;;;;;;5.07;4.40;;;;;;;10.60;53.28;99229.22;6982500;28;20257;-77
2024/02/14 05:32:20;;;;;;;8.20;4.60;;;;;;;10.82;52.94;99234.41;6972330;28;20207;-78
2024/02/14 05:35:42;;;;;;;5.97;4.23;;;;;;;10.50;53.22;99212.56;6961688;28;20207;-78
2024/02/14 05:39:03;;;;;;;4.97;4.37;;;;;;;10.91;52.98;99229.66;6962426;28;20304;-78
2024/02/14 05:42:25;;;;;;;5.63;4.33;;;;;;;11.00;52.51;99226.66;6955517;28;20210;-79
2024/02/14 05:45:48;;;;;;;5.57;4.60;;;;;;;10.83;52.64;99227.13;6970783;28;20264;-78
2024/02/14 05:49:09;;;;;;;4.70;4.30;;;;;;;10.93;51.84;99228.44;6946369;28;20223;-78
2024/02/14 05:52:31;;;;;;;7.37;4.20;;;;;;;10.82;52.49;99233.56;6947212;28;20203;-79
2024/02/14 05:55:52;;;;;;;7.27;4.47;;;;;;;10.93;52.21;99233.84;6947904;28;20290;-78
2024/02/14 05:59:14;;;;;;;7.30;4.63;;;;;;;11.11;51.73;99233.34;6947352;28;20330;-79
2024/02/14 06:02:37;;;;;;;5.20;4.20;;;;;;;11.19;51.47;99216.97;6947674;28;20207;-79
2024/02/14 06:05:58;;;;;;;8.37;4.43;;;;;;;11.17;51.14;99216.34;6956513;28;20555;-79
2024/02/14 06:09:20;;;;;;;4.97;4.17;;;;;;;11.28;50.97;99210.41;6974128;28;20357;-78
2024/02/14 06:12:43;;;;;;;6.80;3.90;;;;;;;11.18;51.01;99220.72;6956922;28;20285;-79
2024/02/14 06:16:05;;;;;;;7.23;4.20;;;;;;;11.08;51.04;99214.84;6958253;28;20706;-79
2024/02/14 06:19:28;;;;;;;5.20;4.13;;;;;;;10.98;51.51;99212.50;6948448;28;20205;-78
2024/02/14 06:22:49;;;;;;;6.80;3.97;;;;;;;11.20;50.82;99219.50;6947933;28;20294;-78
2024/02/14 06:26:11;;;;;;;5.20;3.27;;;;;;;11.34;50.59;99231.19;6964105;28;20293;-79
2024/02/14 06:29:32;;;;;;;4.50;3.53;;;;;;;11.48;50.01;99220.28;6975355;28;20236;-81
2024/02/14 06:32:54;;;;;;;3.23;2.90;;;;;;;11.57;48.68;99220.94;6965280;28;20205;-81
2024/02/14 06:36:17;;;;;;;6.10;3.80;;;;;;;11.66;48.82;99225.13;6977665;28;20230;-79
2024/02/14 06:39:39;;;;;;;5.50;3.47;;;;;;;11.12;50.90;99235.00;6950449;28;20198;-78
2024/02/14 06:43:00;;;;;;;6.17;4.90;;;;;;;11.03;51.33;99238.91;6958215;28;20230;-79
2024/02/14 06:46:22;;;;;;;4.87;3.70;;;;;;;11.25;51.45;99241.31;6962227;28;20819;-79
2024/02/14 06:49:43;;;;;;;4.50;3.80;;;;;;;11.10;52.05;99237.91;6976002;28;20313;-79
2024/02/14 06:53:07;;;;;;;9.37;4.20;;;;;;;10.66;52.69;99248.16;6970396;28;20289;-79
2024/02/14 06:56:30;;;;;;;7.20;4.03;;;;;;;11.24;51.79;99249.63;6946199;28;20326;-79
2024/02/14 06:59:52;;;;;;;5.17;3.77;;;;;;;10.76;52.28;99239.72;6944957;28;20207;-79
2024/02/14 07:03:13;;;;;;;8.27;3.90;;;;;;;11.30;50.97;99235.31;6968110;28;20206;-79
2024/02/14 07:06:35;;;;;;;5.63;3.53;;;;;;;11.62;50.62;99238.22;6945582;28;20310;-78
2024/02/14 07:09:58;;;;;;;5.63;3.63;;;;;;;11.16;52.19;99237.09;6964216;28;20309;-79
2024/02/14 07:13:19;;;;;;;9.47;4.20;;;;;;;11.51;51.25;99210.94;6951512;28;20629;-77
2024/02/14 07:16:41;;;;;;;5.50;4.20;;;;;;;11.66;51.20;99236.78;6969737;28;20306;-79
2024/02/14 07:20:03;;;;;;;6.17;4.20;;;;;;;11.60;51.50;99232.19;6972462;28;20199;-79
2024/02/14 07:23:26;;;;;;;6.07;4.33;;;;;;;11.34;51.81;99237.41;6965972;28;20214;-78
2024/02/14 07:26:48;;;;;;;9.43;4.13;;;;;;;11.54;51.68;99251.03;6962762;28;20273;-79
2024/02/14 07:30:11;;;;;;;7.43;4.53;;;;;;;11.37;51.84;99236.19;6972624;28;20294;-78
2024/02/14 07:33:33;;;;;;;4.63;3.53;;;;;;;11.11;51.45;99246.84;6953387;28;20565;-79
2024/02/14 07:36:54;;;;;;;4.23;3.83;;;;;;;11.80;50.34;99246.59;6973527;28;20605;-79
2024/02/14 07:40:16;;;;;;;5.10;3.83;;;;;;;11.92;50.13;99247.69;6967823;28;20262;-79
2024/02/14 07:43:39;;;;;;;7.77;5.40;;;;;;;11.86;49.86;99262.00;6951778;28;20624;-79
2024/02/14 07:47:00;;;;;;;6.63;4.23;;;;;;;11.95;49.97;99265.38;6952255;28;20290;-81
2024/02/14 07:50:22;;;;;;;5.50;3.53;;;;;;;12.10;49.20;99264.16;6972074;28;20250;-80
2024/02/14 07:53:43;;;;;;;4.43;3.57;;;;;;;12.32;48.61;99267.53;6976694;28;20206;-79
2024/02/14 07:57:05;;;;;;;4.23;3.00;;;;;;;12.35;49.25;99277.97;6957664;28;20335;-79
2024/02/14 08:00:28;;;;;;;5.97;4.60;;;;;;;11.86;51.33;99278.22;6950422;28;20345;-78
2024/02/14 08:03:50;;;;;;;5.33;4.83;;;;;;;12.15;50.43;99223.03;6950448;28;20238;-80
2024/02/14 08:07:11;;;;;;;6.60;5.57;;;;;;;12.31;51.91;99282.94;6974720;28;20781;-76
2024/02/14 08:10:33;;;;;;;9.10;5.83;;;;;;;12.33;52.10;99282.75;6960892;28;20317;-78
2024/02/14 08:13:54;;;;;;;6.53;4.80;;;;;;;12.35;52.33;99288.78;6946698;28;20198;-78
2024/02/14 08:17:17;;;;;;;7.63;5.83;;;;;;;12.10;53.44;99290.38;6969157;28;20226;-77
2024/02/14 08:20:41;;;;;;;8.23;4.77;;;;;;;11.77;53.53;99292.09;6974519;28;20202;-77
2024/02/14 08:24:02;;;;;;;6.60;5.30;;;;;;;12.35;52.48;99289.63;6970169;28;20206;-79
2024/02/14 08:27:24;;;;;;;9.57;4.93;;;;;;;12.30;51.97;99292.09;6969702;28;20320;-79
2024/02/14 08:30:45;;;;;;;6.97;5.17;;;;;;;12.48;51.49;99291.50;6970306;28;20321;-77
2024/02/14 08:34:09;;;;;;;7.20;5.43;;;;;;;12.42;51.18;99293.16;6944108;28;20827;-77
2024/02/14 08:37:31;;;;;;;14.70;9.03;;;;;;;12.79;50.57;99289.88;6948632;28;20290;-78
2024/02/14 08:40:52;;;;;;;9.30;5.60;;;;;;;13.00;50.69;99286.16;6972692;28;20672;-79
2024/02/14 08:44:14;;;;;;;7.47;4.80;;;;;;;13.13;50.54;99296.97;6969383;28;20209;-79
2024/02/14 08:47:36;;;;;;;6.27;3.37;;;;;;;12.95;50.90;99297.63;6967662;28;20234;-79
2024/02/14 08:50:59;;;;;;;4.23;3.20;;;;;;;12.99;51.35;99288.03;6968228;28;20237;-79
2024/02/14 08:54:21;;;;;;;4.33;3.83;;;;;;;12.86;51.58;99289.91;6968667;28;20292;-79
2024/02/14 08:57:43;;;;;;;7.37;3.47;;;;;;;13.09;51.34;99269.50;6968188;28;20713;-78
2024/02/14 09:01:05;;;;;;;6.23;3.40;;;;;;;13.37;51.40;99285.50;6974243;28;20340;-79
2024/02/14 09:04:27;;;;;;;4.23;3.27;;;;;;;13.30;50.93;99282.81;6974213;28;20744;-79
2024/02/14 09:07:50;;;;;;;7.63;4.10;;;;;;;13.60;50.40;99285.88;6972065;28;20215;-79
2024/02/14 09:11:12;;;;;;;6.57;4.90;;;;;;;13.45;50.40;99277.97;6975480;28;20317;-79
2024/02/14 09:14:33;;;;;;;7.63;4.33;;;;;;;12.76;51.93;99278.66;6974050;28;20206;-78
2024/02/14 09:17:56;;;;;;;12.67;7.23;;;;;;;13.74;51.27;99273.97;6973447;28;20311;-79
2024/02/14 09:21:19;;;;;;;16.50;7.63;;;;;;;13.84;51.54;99280.59;6974337;28;20683;-78
2024/02/14 09:24:42;;;;;;;13.83;7.17;;;;;;;14.04;50.75;99280.50;6974437;28;20249;-79
2024/02/14 09:28:04;;;;;;;8.73;6.90;;;;;;;13.66;51.52;99279.59;6972731;28;20238;-79
2024/02/14 09:31:25;;;;;;;15.30;7.53;;;;;;;13.90;50.29;99287.84;6973950;28;20379;-79
2024/02/14 09:34:47;;;;;;;10.77;5.70;;;;;;;13.24;51.79;99286.38;6952732;28;20341;-79
2024/02/14 09:38:09;;;;;;;11.47;5.20;;;;;;;14.16;50.22;99276.88;6945456;28;20322;-78
2024/02/14 09:41:34;;;;;;;9.77;5.97;;;;;;;14.41;50.40;99294.13;6945870;28;20349;-78
2024/02/14 09:44:59;;;;;;;6.63;5.43;;;;;;;14.82;50.00;99294.44;6944147;28;20237;-80
2024/02/14 09:48:22;;;;;;;7.33;5.67;;;;;;;14.76;48.76;99289.88;6959946;28;20365;-78
2024/02/14 09:51:45;;;;;;;10.43;6.70;;;;;;;15.04;48.41;99287.59;6949126;28;20313;-79
2024/02/14 09:55:07;;;;;;;8.17;6.00;;;;;;;14.60;49.41;99292.31;6976356;28;20768;-79
2024/02/14 09:58:30;;;;;;;9.23;6.30;;;;;;;14.83;50.03;99284.41;6975711;28;20675;-79
2024/02/14 10:01:52;;;;;;;10.43;5.73;;;;;;;14.33;49.33;99291.63;6976535;28;20206;-79
2024/02/14 10:05:13;;;;;;;9.17;4.37;;;;;;;14.51;49.50;99280.88;6978072;28;20327;-80
2024/02/14 10:08:35;;;;;;;3.73;2.73;;;;;;;15.96;44.14;99272.03;6975885;28;20371;-79
2024/02/14 10:11:57;;;;;;;5.57;2.50;;;;;;;16.12;43.88;99276.84;6945373;28;20370;-79
2024/02/14 10:15:20;;;;;;;2.40;2.20;;;;;;;16.33;44.17;99270.91;6959915;28;20207;-80
2024/02/14 10:18:42;;;;;;;3.03;2.73;;;;;;;16.46;43.94;99265.28;6985432;28;20261;-79
2024/02/14 10:22:05;;;;;;;4.37;2.40;;;;;;;16.98;42.26;99267.22;6982793;28;20305;-78
2024/02/14 10:25:26;;;;;;;2.87;2.37;;;;;;;16.27;44.33;99271.81;6982127;28;20204;-79
2024/02/14 10:28:50;;;;;;;2.20;2.00;;;;;;;16.39;44.26;99261.84;6980449;28;20313;-79
2024/02/14 10:32:15;;;;;;;3.57;2.60;;;;;;;16.60;45.27;99268.66;6961555;28;20227;-80
2024/02/14 10:35:41;;;;;;;2.33;2.00;;;;;;;17.25;42.83;99267.59;6954074;28;20203;-79
2024/02/14 10:39:03;;;;;;;2.83;2.40;;;;;;;17.06;43.39;99260.59;6951685;28;20231;-79
2024/02/14 10:42:25;;;;;;;2.30;2.10;;;;;;;17.30;42.75;99248.63;6961346;28;20320;-79
2024/02/14 10:45:46;;;;;;;3.03;2.03;;;;;;;17.06;43.08;99239.63;6978299;28;20274;-78
2024/02/14 10:49:11;;;;;;;4.13;2.23;;;;;;;17.23;43.31;99258.81;6977007;28;20354;-80
2024/02/14 10:52:34;;;;;;;3.73;2.20;;;;;;;17.90;42.66;99256.31;6977590;28;20213;-80
2024/02/14 10:55:56;;;;;;;4.77;2.10;;;;;;;17.63;42.62;99248.88;6977933;28;20214;-80
2024/02/14 10:59:20;;;;;;;2.27;1.90;;;;;;;17.96;42.13;99259.94;6975190;28;20289;-80
2024/02/14 11:02:42;;;;;;;2.70;2.00;;;;;;;17.68;43.12;99254.47;6976281;28;20217;-80
2024/02/14 11:06:06;;;;;;;3.27;2.33;;;;;;;18.47;41.14;99260.78;6975201;28;20202;-80
2024/02/14 11:09:33;;;;;;;4.83;2.10;;;;;;;18.16;41.91;99242.09;6956490;28;20207;-80
2024/02/14 11:12:55;;;;;;;4.43;1.87;;;;;;;17.53;43.10;99265.00;6953513;28;20207;-80
2024/02/14 11:16:16;;;;;;;1.53;1.43;;;;;;;17.22;43.85;99262.63;6963504;28;20352;-79
2024/02/14 11:19:41;;;;;;;2.03;1.83;;;;;;;17.70;43.55;99249.59;6974671;28;20209;-79
2024/02/14 11:23:05;;;;;;;1.83;1.70;;;;;;;17.04;44.67;99266.25;6947570;28;20694;-79
2024/02/14 11:26:28;;;;;;;2.97;1.90;;;;;;;17.54;44.55;99262.06;6945295;28;20691;-78
2024/02/14 11:29:53;;;;;;;1.97;1.87;;;;;;;16.73;45.77;99214.84;6943840;28;20234;-80
2024/02/14 11:33:18;;;;;;;2.43;1.80;;;;;;;17.50;44.60;99260.03;6944615;28;20214;-81
2024/02/14 11:36:42;;;;;;;2.00;1.57;;;;;;;17.38;45.38;99230.06;6958748;28;20360;-81
2024/02/14 11:40:07;;;;;;;1.83;1.70;;;;;;;17.70;44.75;99257.78;6972648;28;20297;-81
2024/02/14 11:43:28;;;;;;;2.17;1.50;;;;;;;17.87;44.27;99243.13;6972005;28;20663;-81
2024/02/14 11:46:50;;;;;;;2.57;1.80;;;;;;;17.81;44.67;99252.28;6949207;28;20280;-81
2024/02/14 11:50:11;;;;;;;1.93;1.77;;;;;;;17.66;45.05;99242.94;6973062;28;20667;-81
2024/02/14 11:53:33;;;;;;;2.00;1.77;;;;;;;17.94;44.42;99251.19;6973695;28;20306;-82
2024/02/14 11:56:56;;;;;;;2.57;1.70;;;;;;;18.06;43.64;99243.81;6976405;28;20258;-80
2024/02/14 12:00:19;;;;;;;1.63;1.53;;;;;;;17.26;45.66;99251.00;6974299;28;20231;-80
2024/02/14 12:03:41;;;;;;;3.73;1.60;;;;;;;17.25;45.52;99248.50;6964232;28;20342;-80
2024/02/14 12:07:03;;;;;;;2.20;1.70;;;;;;;17.34;45.55;99226.09;6946110;28;20259;-80
2024/02/14 12:10:24;;;;;;;2.03;1.73;;;;;;;17.34;45.89;99241.66;6969805;28;20290;-80
2024/02/14 12:13:51;;;;;;;2.30;1.73;;;;;;;17.49;45.65;99245.59;6951408;28;20292;-79
2024/02/14 12:17:13;;;;;;;1.93;1.80;;;;;;;17.67;45.75;99250.88;6947620;28;20226;-80
2024/02/14 12:20:36;;;;;;;2.00;1.87;;;;;;;17.58;46.09;99263.22;6979832;28;20301;-81
2024/02/14 12:23:59;;;;;;;1.90;1.57;;;;;;;17.53;46.74;99263.13;6975050;28;20206;-80
2024/02/14 12:27:21;;;;;;;3.17;1.70;;;;;;;17.36;46.23;99262.16;6970783;28;20270;-80
2024/02/14 12:30:49;;;;;;;1.37;1.27;;;;;;;17.53;46.30;99241.31;6950125;28;20276;-80
2024/02/14 12:34:12;;;;;;;4.53;1.50;;;;;;;17.35;46.79;99249.56;6945480;28;20214;-80
2024/02/14 12:37:34;;;;;;;1.70;1.60;;;;;;;17.67;46.09;99255.50;6947351;28;20892;-80
2024/02/14 12:40:55;;;;;;;2.73;1.60;;;;;;;17.29;46.53;99260.59;6949045;28;20222;-80
2024/02/14 12:44:17;;;;;;;2.60;1.70;;;;;;;17.67;45.95;99248.16;6969242;28;20226;-83
2024/02/14 12:47:43;;;;;;;2.60;1.57;;;;;;;17.96;45.91;99254.50;6966924;28;20304;-80
2024/02/14 12:51:05;;;;;;;1.83;1.57;;;;;;;17.99;45.19;99246.66;6949164;28;20650;-81
2024/02/14 12:54:26;;;;;;;1.67;1.50;;;;;;;18.37;44.59;99236.00;6972715;28;20722;-81
2024/02/14 12:57:48;;;;;;;1.87;1.70;;;;;;;19.03;43.47;99240.69;6972181;28;20299;-81
2024/02/14 13:01:10;;;;;;;1.50;1.40;;;;;;;18.56;43.89;99236.59;6977944;28;20665;-80
2024/02/14 13:04:33;;;;;;;1.60;1.50;;;;;;;18.16;44.14;99197.63;6967014;28;20195;-83
2024/02/14 13:07:55;;;;;;;3.43;1.80;;;;;;;18.56;44.19;99221.06;6946339;28;20287;-80
2024/02/14 13:11:18;;;;;;;1.80;1.70;;;;;;;19.35;42.22;99209.78;6945509;28;20234;-81
2024/02/14 13:14:41;;;;;;;2.40;1.80;;;;;;;19.10;43.04;99203.13;6943849;28;20215;-83
2024/02/14 13:18:02;;;;;;;3.27;1.60;;;;;;;19.66;42.19;99209.16;6964350;28;20597;-81
2024/02/14 13:21:25;;;;;;;1.60;1.50;;;;;;;19.54;42.15;99213.06;6946668;28;20203;-80
2024/02/14 13:24:47;;;;;;;1.50;1.40;;;;;;;19.59;41.98;99213.16;6943471;28;20207;-79
2024/02/14 13:28:09;;;;;;;1.70;1.60;;;;;;;19.50;42.24;99209.19;6942237;28;20389;-80
2024/02/14 13:31:30;;;;;;;3.70;2.70;;;;;;;18.95;43.34;99198.22;6948736;28;20238;-79
2024/02/14 13:34:55;;;;;;;2.43;1.47;;;;;;;19.05;43.43;99192.09;6953988;28;20324;-82
2024/02/14 13:38:18;;;;;;;1.30;1.20;;;;;;;18.92;43.40;99192.44;6976343;28;20723;-82
2024/02/14 13:41:40;;;;;;;2.03;1.57;;;;;;;19.28;43.00;99190.00;6977402;28;20565;-80
2024/02/14 13:45:01;;;;;;;1.50;1.40;;;;;;;19.02;42.80;99187.97;6958381;28;20245;-80
2024/02/14 13:48:23;;;;;;;2.23;1.40;;;;;;;18.91;43.18;99199.81;6952466;28;20277;-79
2024/02/14 13:51:45;;;;;;;1.43;1.33;;;;;;;19.40;42.58;99188.00;6951470;28;20223;-79
2024/02/14 13:55:08;;;;;;;1.27;1.27;;;;;;;18.93;43.46;99196.81;6966081;28;20276;-80
2024/02/14 13:58:30;;;;;;;3.30;1.50;;;;;;;19.24;43.10;99204.44;6975846;28;20280;-80
2024/02/14 14:01:51;;;;;;;1.97;1.77;;;;;;;19.14;43.17;99185.13;6981590;28;20270;-81
2024/02/14 14:05:13;;;;;;;1.33;1.27;;;;;;;19.47;42.26;99187.81;6977381;28;20287;-80
2024/02/14 14:08:36;;;;;;;2.47;1.40;;;;;;;19.26;42.88;99205.00;6963827;28;20226;-79
2024/02/14 14:11:59;;;;;;;2.47;1.73;;;;;;;19.24;42.55;99175.22;6974701;28;20222;-80
2024/02/14 14:15:21;;;;;;;1.13;1.07;;;;;;;19.16;43.54;99193.91;6963606;28;20304;-82
2024/02/14 14:18:43;;;;;;;1.90;1.50;;;;;;;19.04;43.34;99199.47;6973166;28;20228;-79
2024/02/14 14:22:05;;;;;;;3.17;1.37;;;;;;;18.69;44.52;99198.88;6976524;28;20227;-80
2024/02/14 14:25:27;;;;;;;1.53;1.40;;;;;;;18.94;43.71;99193.00;6974434;28;20293;-80
2024/02/14 14:28:50;;;;;;;1.43;1.33;;;;;;;19.52;42.89;99193.38;6953664;28;20227;-80
2024/02/14 14:32:12;;;;;;;1.27;1.27;;;;;;;19.51;43.05;99181.59;6949767;28;20323;-81
2024/02/14 14:35:35;;;;;;;1.60;1.50;;;;;;;19.33;43.18;99189.28;6962202;28;20333;-80
2024/02/14 14:38:57;;;;;;;1.73;1.30;;;;;;;19.03;43.78;99195.06;6972225;28;20230;-80
2024/02/14 14:42:19;;;;;;;1.73;1.47;;;;;;;19.30;43.24;99189.75;6974815;28;20211;-80
2024/02/14 14:45:42;;;;;;;1.60;1.50;;;;;;;19.13;43.88;99178.00;6978660;28;20284;-78
2024/02/14 14:49:03;;;;;;;2.13;1.50;;;;;;;19.26;44.18;99189.44;6984191;28;20234;-79
2024/02/14 14:52:25;;;;;;;2.60;1.30;;;;;;;19.36;43.70;99186.03;7000101;28;20698;-79
2024/02/14 14:55:51;;;;;;;3.43;2.70;;;;;;;19.38;43.98;99176.50;6980668;28;20198;-82
2024/02/14 14:59:16;;;;;;;2.57;2.37;;;;;;;19.03;44.77;99196.97;6973427;28;20376;-81
2024/02/14 15:02:41;;;;;;;2.40;1.63;;;;;;;18.92;45.23;99201.44;6976062;28;20193;-80
2024/02/14 15:06:02;;;;;;;2.80;1.60;;;;;;;18.56;45.86;99201.09;6979506;28;20348;-79
2024/02/14 15:09:24;;;;;;;1.37;1.27;;;;;;;18.64;46.50;99203.44;6974492;28;20242;-79
2024/02/14 15:12:45;;;;;;;3.10;1.37;;;;;;;18.85;46.00;99194.50;6974075;28;20258;-81
2024/02/14 15:16:07;;;;;;;2.70;2.50;;;;;;;18.75;45.65;99172.50;6973847;28;20217;-80
2024/02/14 15:19:30;;;;;;;3.53;1.67;;;;;;;19.02;45.08;99193.41;6991937;28;20214;-80
2024/02/14 15:22:52;;;;;;;2.67;1.70;;;;;;;18.73;45.92;99191.84;6979779;28;20302;-80
2024/02/14 15:26:17;;;;;;;3.23;1.83;;;;;;;18.90;45.12;99180.91;6987660;28;20287;-80
2024/02/14 15:33:23;;;;;;;2.13;1.70;;;;;;;19.17;44.66;99188.16;6974215;28;20602;-80
2024/02/14 15:36:46;;;;;;;2.70;1.60;;;;;;;19.14;44.98;99182.38;6974584;28;20226;-80
2024/02/14 15:40:09;;;;;;;1.50;1.40;;;;;;;18.85;45.19;99178.94;6998323;28;20295;-80
2024/02/14 15:43:32;;;;;;;1.40;1.30;;;;;;;19.21;44.56;99185.81;6980248;28;20194;-79
2024/02/14 15:46:53;;;;;;;1.30;1.20;;;;;;;19.00;44.76;99187.38;6972832;28;20237;-79
2024/02/14 15:50:15;;;;;;;1.87;1.40;;;;;;;18.82;45.31;99186.81;6984929;28;20620;-79
2024/02/14 15:53:38;;;;;;;1.03;1.03;;;;;;;19.05;45.04;99197.56;6987285;28;20313;-79
2024/02/14 15:56:59;;;;;;;2.30;2.07;;;;;;;18.49;46.13;99206.72;6987990;28;20256;-80